createdAt,value
2022-08-11T00:06:08.106Z,10.4
2022-08-11T00:20:41.423Z,10.3
2022-08-11T00:35:57.996Z,9.9
2022-08-11T00:50:00.776Z,10.1
2022-08-11T01:04:28.017Z,9.8
2022-08-11T01:18:55.662Z,9.7
2022-08-11T01:33:21.020Z,9.8
2022-08-11T01:47:54.943Z,9.9
2022-08-11T02:02:22.108Z,9.8
2022-08-11T02:16:52.328Z,9.7
2022-08-11T02:32:31.571Z,9.5
2022-08-11T02:46:28.598Z,9.4
2022-08-11T03:00:54.364Z,9.4
2022-08-11T03:15:20.946Z,9.5
2022-08-11T03:29:47.744Z,9.6
2022-08-11T03:44:21.479Z,9.6
2022-08-11T03:58:51.020Z,9.9
2022-08-11T04:13:13.538Z,9.5
2022-08-11T04:27:49.123Z,9.5
2022-08-11T04:42:17.424Z,9.8
2022-08-11T04:56:40.871Z,9.8
2022-08-11T05:11:14.468Z,10.2
2022-08-11T05:26:50.337Z,10.4
2022-08-11T05:41:00.541Z,10.2
2022-08-11T05:55:26.573Z,10.6
2022-08-11T06:09:55.363Z,10.5
2022-08-11T06:24:19.520Z,10.5
2022-08-11T06:38:46.675Z,9.9
2022-08-11T06:53:15.173Z,10.8
2022-08-11T07:07:44.568Z,10.2
2022-08-11T07:22:12.976Z,10.9
2022-08-11T07:36:43.540Z,10.5
2022-08-11T07:51:37.613Z,11.3
2022-08-11T08:06:37.008Z,11.5
2022-08-11T08:20:48.012Z,11.4
2022-08-11T08:35:17.075Z,12
2022-08-11T08:49:48.045Z,11.3
2022-08-11T09:04:21.511Z,10.9
2022-08-11T09:18:42.866Z,10.3
2022-08-11T09:33:09.668Z,9.9
2022-08-11T09:47:39.211Z,10.1
2022-08-11T10:01:58.740Z,10.8
2022-08-11T10:16:26.314Z,11
2022-08-11T10:30:53.753Z,10.9
2022-08-11T10:45:26.681Z,9.9
2022-08-11T10:59:57.303Z,10.3
2022-08-11T11:14:27.372Z,9.9
2022-08-11T11:28:49.126Z,9.7
2022-08-11T11:43:20.051Z,9.4
2022-08-11T11:58:03.158Z,10.2
2022-08-11T12:12:20.299Z,10.7
2022-08-11T12:27:18.566Z,10.6
2022-08-11T12:41:38.763Z,10.1
2022-08-11T12:56:08.315Z,10
2022-08-11T13:10:29.835Z,9.9
2022-08-11T13:24:58.036Z,10.2
2022-08-11T13:39:27.094Z,10.6
2022-08-11T13:54:02.647Z,9.9
2022-08-11T14:08:47.462Z,10
2022-08-11T14:23:02.745Z,10.1
2022-08-11T14:37:28.415Z,10.1
2022-08-11T14:51:54.884Z,10
2022-08-11T15:06:22.141Z,10
2022-08-11T15:20:54.793Z,10.1
2022-08-11T15:35:18.488Z,9.9
2022-08-11T15:50:14.462Z,9.6
2022-08-11T16:04:26.307Z,9.7
2022-08-11T16:18:59.030Z,9.4
2022-08-11T16:33:52.067Z,8.9
2022-08-11T16:48:39.754Z,9.1
2022-08-11T17:02:48.484Z,9.2
2022-08-11T17:17:16.883Z,9.9
2022-08-11T17:31:49.463Z,9.8
2022-08-11T17:46:17.710Z,9.8
2022-08-11T18:00:40.122Z,10.1
2022-08-11T18:15:05.653Z,12.3
2022-08-11T18:29:42.767Z,12.6
2022-08-11T18:44:01.370Z,11
2022-08-11T18:58:25.601Z,11.1
2022-08-11T19:12:57.571Z,10.8
2022-08-11T19:27:20.403Z,10.3
2022-08-11T19:42:00.885Z,10.3
2022-08-11T19:56:18.571Z,10.7
2022-08-11T20:10:44.833Z,10.3
2022-08-11T20:25:12.034Z,9.8
2022-08-11T20:39:39.379Z,10.2
2022-08-11T20:54:10.803Z,10.5
2022-08-11T21:08:33.209Z,10.3
2022-08-11T21:23:07.197Z,10.8
2022-08-11T21:37:36.303Z,10.6
2022-08-11T21:52:04.036Z,10.4
2022-08-11T22:06:27.078Z,10.1
2022-08-11T22:20:53.927Z,10.2
2022-08-11T22:35:21.667Z,10.4
2022-08-11T22:49:58.940Z,10.4
2022-08-11T23:04:25.026Z,10.3
2022-08-11T23:18:54.706Z,10.1
2022-08-11T23:33:17.086Z,10.2
2022-08-11T23:47:51.495Z,10.1
